createdAt,value
2024-04-23T00:02:15.184Z,100048.34
2024-04-23T00:04:42.051Z,100041.72
2024-04-23T00:07:09.189Z,100044.59
2024-04-23T00:09:36.006Z,100046.20
2024-04-23T00:12:02.995Z,100046.23
2024-04-23T00:14:29.904Z,100048.10
2024-04-23T00:17:00.095Z,100051.34
2024-04-23T00:19:26.811Z,100052.40
2024-04-23T00:21:54.012Z,100050.18
2024-04-23T00:24:20.724Z,100046.14
2024-04-23T00:27:00.282Z,100050.55
2024-04-23T00:29:27.562Z,100052.79
2024-04-23T00:31:55.137Z,100050.52
2024-04-23T00:34:22.070Z,100053.23
2024-04-23T00:36:51.852Z,100052.34
2024-04-23T00:39:18.655Z,100050.02
2024-04-23T00:41:45.349Z,100049.83
2024-04-23T00:44:12.649Z,100049.50
2024-04-23T00:46:39.633Z,100051.02
2024-04-23T00:49:08.387Z,100051.73
2024-04-23T00:51:35.400Z,100051.45
2024-04-23T00:54:02.517Z,100054.45
2024-04-23T00:56:29.769Z,100052.84
2024-04-23T00:58:56.500Z,100056.33
2024-04-23T01:01:23.189Z,100058.92
2024-04-23T01:03:49.789Z,100057.83
2024-04-23T01:06:16.595Z,100056.45
2024-04-23T01:08:43.334Z,100052.33
2024-04-23T01:11:10.117Z,100050.21
2024-04-23T01:13:36.894Z,100054.61
2024-04-23T01:16:03.704Z,100060.39
2024-04-23T01:18:30.723Z,100061.33
2024-04-23T01:20:59.196Z,100064.76
2024-04-23T01:23:44.882Z,100064.36
2024-04-23T01:26:11.632Z,100063.34
2024-04-23T01:28:39.365Z,100063.36
2024-04-23T01:31:06.306Z,100064.27
2024-04-23T01:33:36.402Z,100063.16
2024-04-23T01:36:03.703Z,100066.21
2024-04-23T01:38:31.893Z,100064.94
2024-04-23T01:40:58.423Z,100065.15
2024-04-23T01:43:25.552Z,100068.00
2024-04-23T01:45:52.270Z,100067.41
2024-04-23T01:48:19.507Z,100068.16
2024-04-23T01:50:46.264Z,100069.77
2024-04-23T01:53:13.523Z,100073.17
2024-04-23T01:55:40.427Z,100071.26
2024-04-23T01:58:07.051Z,100075.73
2024-04-23T02:00:35.104Z,100080.85
2024-04-23T02:03:01.930Z,100079.67
2024-04-23T02:05:28.870Z,100080.60
2024-04-23T02:07:56.075Z,100084.11
2024-04-23T02:10:23.088Z,100088.35
2024-04-23T02:12:50.084Z,100088.05
2024-04-23T02:15:17.274Z,100090.40
2024-04-23T02:17:44.183Z,100095.20
2024-04-23T02:20:12.295Z,100093.45
2024-04-23T02:22:39.071Z,100096.27
2024-04-23T02:25:05.878Z,100100.75
2024-04-23T02:27:32.501Z,100103.87
2024-04-23T02:30:02.667Z,100099.80
2024-04-23T02:32:29.712Z,100098.64
2024-04-23T02:34:56.431Z,100099.19
2024-04-23T02:37:23.220Z,100098.31
2024-04-23T02:39:49.854Z,100100.11
2024-04-23T02:42:16.894Z,100102.14
2024-04-23T02:44:44.306Z,100102.38
2024-04-23T02:47:10.994Z,100102.37
2024-04-23T02:49:37.610Z,100103.92
2024-04-23T02:52:04.414Z,100107.22
2024-04-23T02:54:31.276Z,100110.33
2024-04-23T02:56:58.295Z,100113.10
2024-04-23T02:59:25.270Z,100111.33
2024-04-23T03:02:21.193Z,100112.83
2024-04-23T03:04:48.063Z,100113.63
2024-04-23T03:07:14.813Z,100122.87
2024-04-23T03:09:41.392Z,100122.23
2024-04-23T03:12:08.493Z,100122.40
2024-04-23T03:14:35.333Z,100125.92
2024-04-23T03:17:02.364Z,100127.46
2024-04-23T03:19:29.645Z,100126.98
2024-04-23T03:21:57.197Z,100128.29
2024-04-23T03:24:24.471Z,100132.27
2024-04-23T03:26:51.296Z,100130.03
2024-04-23T03:29:21.044Z,100131.67
2024-04-23T03:31:48.106Z,100132.09
2024-04-23T03:34:15.001Z,100134.66
2024-04-23T03:36:42.833Z,100139.92
2024-04-23T03:39:09.467Z,100141.18
2024-04-23T03:41:36.172Z,100140.30
2024-04-23T03:44:03.411Z,100141.86
2024-04-23T03:46:31.026Z,100143.98
2024-04-23T03:48:57.835Z,100145.84
2024-04-23T03:51:24.866Z,100150.64
2024-04-23T03:53:51.393Z,100151.83
2024-04-23T03:56:18.676Z,100153.27
2024-04-23T03:58:45.420Z,100157.92
2024-04-23T04:01:12.249Z,100162.47
2024-04-23T04:03:57.876Z,100164.60
2024-04-23T04:06:25.156Z,100170.98
2024-04-23T04:08:54.569Z,100174.70
2024-04-23T04:11:23.274Z,100177.56
2024-04-23T04:13:49.938Z,100180.20
2024-04-23T04:16:16.577Z,100181.91
2024-04-23T04:18:43.714Z,100180.02
2024-04-23T04:21:10.377Z,100189.86
2024-04-23T04:23:36.877Z,100188.68
2024-04-23T04:26:03.893Z,100189.83
2024-04-23T04:28:31.471Z,100188.10
2024-04-23T04:30:58.471Z,100189.61
2024-04-23T04:33:25.641Z,100195.00
2024-04-23T04:35:52.492Z,100195.38
2024-04-23T04:38:19.354Z,100194.42
2024-04-23T04:40:46.334Z,100198.31
2024-04-23T04:43:13.356Z,100198.27
2024-04-23T04:45:40.099Z,100193.07
2024-04-23T04:48:08.272Z,100190.85
2024-04-23T04:50:35.116Z,100190.39
2024-04-23T04:53:02.000Z,100191.15
2024-04-23T04:55:32.847Z,100192.48
2024-04-23T04:57:59.779Z,100186.20
2024-04-23T05:00:26.483Z,100186.11
2024-04-23T05:02:53.389Z,100184.77
2024-04-23T05:05:20.630Z,100175.44
2024-04-23T05:07:48.466Z,100173.70
2024-04-23T05:10:15.645Z,100177.67
2024-04-23T05:12:42.482Z,100183.02
2024-04-23T05:15:09.127Z,100188.11
2024-04-23T05:17:36.470Z,100193.25
2024-04-23T05:20:03.832Z,100194.97
2024-04-23T05:22:42.114Z,100201.13
2024-04-23T05:25:11.185Z,100199.92
2024-04-23T05:27:37.918Z,100200.91
2024-04-23T05:30:05.481Z,100203.30
2024-04-23T05:32:51.792Z,100201.64
2024-04-23T05:35:18.527Z,100200.80
2024-04-23T05:37:46.050Z,100203.06
2024-04-23T05:40:13.232Z,100205.58
2024-04-23T05:42:40.082Z,100207.49
2024-04-23T05:45:07.251Z,100209.62
2024-04-23T05:48:12.929Z,100215.34
2024-04-23T05:51:36.132Z,100216.21
2024-04-23T05:54:59.683Z,100219.05
2024-04-23T05:57:45.293Z,100223.06
2024-04-23T06:00:12.328Z,100214.42
2024-04-23T06:02:39.547Z,100212.06
2024-04-23T06:05:06.473Z,100196.06
2024-04-23T06:07:33.688Z,100208.06
2024-04-23T06:10:00.437Z,100209.17
2024-04-23T06:12:27.494Z,100210.73
2024-04-23T06:14:54.700Z,100212.23
2024-04-23T06:17:31.851Z,100216.77
2024-04-23T06:20:06.300Z,100221.02
2024-04-23T06:22:39.226Z,100226.48
2024-04-23T06:25:08.037Z,100228.90
2024-04-23T06:27:39.176Z,100223.63
2024-04-23T06:30:10.538Z,100225.20
2024-04-23T06:32:38.621Z,100225.50
2024-04-23T06:35:05.832Z,100222.49
2024-04-23T06:37:34.065Z,100217.70
2024-04-23T06:40:01.229Z,100225.11
2024-04-23T06:42:28.206Z,100223.91
2024-04-23T06:44:55.719Z,100224.88
2024-04-23T06:47:22.735Z,100226.45
2024-04-23T06:49:49.874Z,100229.21
2024-04-23T06:52:18.033Z,100230.63
2024-04-23T06:54:45.126Z,100232.02
2024-04-23T06:57:11.864Z,100231.59
2024-04-23T06:59:38.785Z,100236.08
2024-04-23T07:02:05.630Z,100237.45
2024-04-23T07:04:32.614Z,100233.38
2024-04-23T07:07:01.450Z,100235.46
2024-04-23T07:09:28.068Z,100237.95
2024-04-23T07:11:55.243Z,100236.93
2024-04-23T07:14:22.357Z,100232.52
2024-04-23T07:16:49.299Z,100236.14
2024-04-23T07:19:16.076Z,100234.27
2024-04-23T07:21:43.078Z,100234.72
2024-04-23T07:24:10.161Z,100230.74
2024-04-23T07:26:37.080Z,100225.28
2024-04-23T07:29:04.687Z,100226.42
2024-04-23T07:31:31.501Z,100227.44
2024-04-23T07:33:58.231Z,100224.45
2024-04-23T07:36:25.219Z,100225.55
2024-04-23T07:38:52.309Z,100221.08
2024-04-23T07:41:19.175Z,100218.70
2024-04-23T07:43:46.329Z,100216.41
2024-04-23T07:46:13.181Z,100214.86
2024-04-23T07:48:39.978Z,100212.95
2024-04-23T07:51:07.129Z,100213.61
2024-04-23T07:53:34.212Z,100209.76
2024-04-23T07:56:01.227Z,100210.55
2024-04-23T07:58:28.274Z,100205.98
2024-04-23T08:00:55.920Z,100212.29
2024-04-23T08:03:22.785Z,100210.30
2024-04-23T08:05:54.794Z,100206.11
2024-04-23T08:08:21.998Z,100208.08
2024-04-23T08:10:49.145Z,100208.47
2024-04-23T08:13:16.757Z,100208.82
2024-04-23T08:15:44.285Z,100206.12
2024-04-23T08:18:11.845Z,100204.17
2024-04-23T08:20:42.080Z,100200.30
2024-04-23T08:23:10.366Z,100201.21
2024-04-23T08:25:37.343Z,100196.15
2024-04-23T08:28:04.863Z,100197.18
2024-04-23T08:30:32.833Z,100195.80
2024-04-23T08:32:59.737Z,100196.61
2024-04-23T08:35:27.363Z,100195.44
2024-04-23T08:37:54.147Z,100195.16
2024-04-23T08:40:21.533Z,100197.52
2024-04-23T08:42:48.724Z,100193.70
2024-04-23T08:45:15.714Z,100197.80
2024-04-23T08:47:42.950Z,100194.39
2024-04-23T08:50:10.533Z,100192.45
2024-04-23T08:52:38.350Z,100187.37
2024-04-23T08:55:06.108Z,100187.69
2024-04-23T08:57:33.309Z,100189.66
2024-04-23T09:00:01.976Z,100190.40
2024-04-23T09:02:33.101Z,100188.14
2024-04-23T09:05:01.593Z,100182.57
2024-04-23T09:07:32.991Z,100186.13
2024-04-23T09:10:02.562Z,100186.43
2024-04-23T09:12:29.670Z,100182.64
2024-04-23T09:14:58.319Z,100185.63
2024-04-23T09:17:25.564Z,100187.33
2024-04-23T09:19:53.925Z,100184.30
2024-04-23T09:22:20.914Z,100185.27
2024-04-23T09:24:47.858Z,100180.42
2024-04-23T09:27:14.887Z,100180.15
2024-04-23T09:29:41.941Z,100183.13
2024-04-23T09:32:09.083Z,100177.70
2024-04-23T09:34:39.322Z,100178.21
2024-04-23T09:37:17.312Z,100174.30
2024-04-23T09:39:46.582Z,100179.42
2024-04-23T09:42:24.242Z,100181.82
2024-04-23T09:44:51.511Z,100180.46
2024-04-23T09:47:18.204Z,100181.40
2024-04-23T09:49:54.115Z,100183.70
2024-04-23T09:52:30.442Z,100187.98
2024-04-23T09:54:57.845Z,100188.20
2024-04-23T09:57:24.752Z,100188.86
2024-04-23T09:59:51.576Z,100190.21
2024-04-23T10:03:28.218Z,100186.95
2024-04-23T10:05:59.848Z,100181.77
2024-04-23T10:08:39.857Z,100184.40
2024-04-23T10:11:07.404Z,100186.16
2024-04-23T10:13:39.552Z,100184.41
2024-04-23T10:16:27.390Z,100189.45
2024-04-23T10:19:04.131Z,100191.00
2024-04-23T10:21:34.255Z,100192.35
2024-04-23T10:24:11.347Z,100192.81
2024-04-23T10:26:41.280Z,100194.23
2024-04-23T10:29:09.986Z,100197.02
2024-04-23T10:31:38.071Z,100189.93
2024-04-23T10:34:06.833Z,100195.76
2024-04-23T10:36:37.115Z,100190.52
2024-04-23T10:39:04.721Z,100187.12
2024-04-23T10:41:32.195Z,100189.24
2024-04-23T10:43:59.682Z,100193.45
2024-04-23T10:46:27.215Z,100188.79
2024-04-23T10:48:56.231Z,100190.67
2024-04-23T10:51:24.585Z,100189.38
2024-04-23T10:53:55.081Z,100192.85
2024-04-23T10:56:26.199Z,100184.67
2024-04-23T10:59:14.875Z,100184.23
2024-04-23T11:01:52.271Z,100184.25
2024-04-23T11:04:33.370Z,100185.98
2024-04-23T11:07:04.213Z,100189.77
2024-04-23T11:09:38.128Z,100191.20
2024-04-23T11:12:15.515Z,100192.94
2024-04-23T11:14:43.012Z,100187.89
2024-04-23T11:17:10.489Z,100188.84
2024-04-23T11:19:38.651Z,100189.05
2024-04-23T11:22:10.800Z,100183.27
2024-04-23T11:24:44.209Z,100180.48
2024-04-23T11:27:15.318Z,100178.02
2024-04-23T11:29:43.849Z,100176.04
2024-04-23T11:32:12.489Z,100172.09
2024-04-23T11:34:41.834Z,100174.20
2024-04-23T11:37:09.706Z,100168.14
2024-04-23T11:39:37.898Z,100170.21
2024-04-23T11:42:13.115Z,100170.09
2024-04-23T11:44:40.715Z,100165.09
2024-04-23T11:47:09.740Z,100164.31
2024-04-23T11:49:37.348Z,100163.00
2024-04-23T11:52:08.160Z,100160.13
2024-04-23T11:54:38.521Z,100153.51
2024-04-23T11:57:05.928Z,100150.91
2024-04-23T11:59:33.493Z,100147.86
2024-04-23T12:02:01.224Z,100137.15
2024-04-23T12:04:28.798Z,100139.09
2024-04-23T12:06:56.732Z,100135.20
2024-04-23T12:09:25.015Z,100128.39
2024-04-23T12:11:52.564Z,100122.39
2024-04-23T12:14:20.847Z,100122.34
2024-04-23T12:16:48.459Z,100118.34
2024-04-23T12:19:15.951Z,100117.96
2024-04-23T12:21:43.656Z,100111.79
2024-04-23T12:24:15.717Z,100112.34
2024-04-23T12:26:44.476Z,100108.11
2024-04-23T12:29:12.163Z,100103.10
2024-04-23T12:31:40.212Z,100105.95
2024-04-23T12:34:08.065Z,100102.08
2024-04-23T12:36:36.833Z,100101.25
2024-04-23T12:39:10.583Z,100097.40
2024-04-23T12:41:39.472Z,100094.70
2024-04-23T12:44:13.878Z,100095.68
2024-04-23T12:46:41.699Z,100095.37
2024-04-23T12:49:09.570Z,100091.37
2024-04-23T12:51:37.531Z,100086.13
2024-04-23T12:54:09.772Z,100087.54
2024-04-23T12:56:37.414Z,100084.80
2024-04-23T12:59:07.285Z,100078.66
2024-04-23T13:01:42.148Z,100071.79
2024-04-23T13:04:13.569Z,100074.30
2024-04-23T13:06:42.786Z,100072.17
2024-04-23T13:09:10.258Z,100074.69
2024-04-23T13:11:38.010Z,100074.02
2024-04-23T13:14:05.691Z,100068.10
2024-04-23T13:16:41.915Z,100068.91
2024-04-23T13:19:14.785Z,100069.45
2024-04-23T13:21:42.218Z,100065.10
2024-04-23T13:24:09.649Z,100063.23
2024-04-23T13:26:37.343Z,100062.55
2024-04-23T13:29:04.883Z,100061.99
2024-04-23T13:31:32.457Z,100057.73
2024-04-23T13:34:00.264Z,100052.70
2024-04-23T13:36:27.726Z,100052.09
2024-04-23T13:38:55.201Z,100056.06
2024-04-23T13:41:23.769Z,100053.81
2024-04-23T13:43:51.330Z,100049.60
2024-04-23T13:46:19.587Z,100047.70
2024-04-23T13:48:47.395Z,100042.73
2024-04-23T13:51:14.780Z,100038.38
2024-04-23T13:53:43.756Z,100036.73
2024-04-23T13:56:12.693Z,100040.06
2024-04-23T13:58:40.515Z,100040.36
2024-04-23T14:01:09.359Z,100037.77
2024-04-23T14:03:37.561Z,100037.19
2024-04-23T14:06:08.323Z,100038.21
2024-04-23T14:08:36.379Z,100050.19
2024-04-23T14:11:05.302Z,100050.52
2024-04-23T14:13:34.296Z,100045.33
2024-04-23T14:16:11.623Z,100040.17
2024-04-23T14:18:43.093Z,100034.35
2024-04-23T14:21:10.689Z,100033.13
2024-04-23T14:23:39.731Z,100030.18
2024-04-23T14:26:07.493Z,100027.64
2024-04-23T14:28:37.579Z,100002.84
2024-04-23T14:31:05.287Z,100024.03
2024-04-23T14:33:33.202Z,100026.77
2024-04-23T14:36:02.821Z,100026.84
2024-04-23T14:38:32.094Z,100019.90
2024-04-23T14:41:00.633Z,100016.82
2024-04-23T14:43:28.285Z,100014.46
2024-04-23T14:45:56.139Z,100013.73
2024-04-23T14:48:24.716Z,100008.13
2024-04-23T14:50:52.571Z,100008.06
2024-04-23T14:53:21.962Z,100002.95
2024-04-23T14:56:03.555Z,100004.52
2024-04-23T14:58:32.185Z,100004.73
2024-04-23T15:00:59.806Z,100004.91
2024-04-23T15:03:29.734Z,100004.97
2024-04-23T15:05:57.271Z,100004.47
2024-04-23T15:08:25.715Z,99998.36
2024-04-23T15:10:57.910Z,99990.14
2024-04-23T15:13:27.083Z,99990.20
2024-04-23T15:16:04.625Z,99982.45
2024-04-23T15:18:39.807Z,99972.78
2024-04-23T15:21:11.944Z,99968.38
2024-04-23T15:23:39.363Z,99961.60
2024-04-23T15:26:07.379Z,99956.98
2024-04-23T15:28:36.740Z,99949.96
2024-04-23T15:31:05.681Z,99951.20
2024-04-23T15:33:40.130Z,99946.60
2024-04-23T15:36:22.718Z,99943.85
2024-04-23T15:38:57.743Z,99936.77
2024-04-23T15:41:25.562Z,99936.43
2024-04-23T15:43:53.376Z,99934.23
2024-04-23T15:46:21.189Z,99937.73
2024-04-23T15:48:48.929Z,99938.52
2024-04-23T15:51:16.464Z,99937.86
2024-04-23T15:53:44.898Z,99936.17
2024-04-23T15:56:13.563Z,99934.50
2024-04-23T15:58:41.261Z,99933.77
2024-04-23T16:01:09.701Z,99934.53
2024-04-23T16:03:43.438Z,99932.52
2024-04-23T16:06:18.364Z,99932.23
2024-04-23T16:08:48.633Z,99928.05
2024-04-23T16:11:16.376Z,99928.62
2024-04-23T16:13:44.679Z,99928.05
2024-04-23T16:16:12.320Z,99927.98
2024-04-23T16:18:39.872Z,99930.52
2024-04-23T16:21:12.469Z,99930.27
2024-04-23T16:23:40.396Z,99928.75
2024-04-23T16:26:08.352Z,99928.46
2024-04-23T16:28:36.803Z,99926.45
2024-04-23T16:31:05.433Z,99929.21
2024-04-23T16:33:37.074Z,99929.71
2024-04-23T16:36:06.037Z,99923.14
2024-04-23T16:38:40.135Z,99919.31
2024-04-23T16:41:10.936Z,99921.05
2024-04-23T16:43:38.833Z,99919.48
2024-04-23T16:46:10.243Z,99915.58
2024-04-23T16:48:38.680Z,99915.71
2024-04-23T16:51:09.525Z,99911.16
2024-04-23T16:53:39.873Z,99908.02
2024-04-23T16:56:09.455Z,99906.27
2024-04-23T16:58:37.195Z,99904.57
2024-04-23T17:01:08.543Z,99904.33
2024-04-23T17:03:36.380Z,99906.85
2024-04-23T17:06:04.246Z,99905.52
2024-04-23T17:08:32.204Z,99903.27
2024-04-23T17:11:03.668Z,99902.30
2024-04-23T17:13:33.561Z,99901.60
2024-04-23T17:16:14.627Z,99903.06
2024-04-23T17:18:42.773Z,99902.35
2024-04-23T17:21:14.309Z,99902.14
2024-04-23T17:23:42.640Z,99901.45
2024-04-23T17:26:10.396Z,99902.16
2024-04-23T17:28:37.938Z,99900.77
2024-04-23T17:31:08.370Z,99896.63
2024-04-23T17:33:36.428Z,99889.17
2024-04-23T17:36:04.007Z,99882.46
2024-04-23T17:38:31.434Z,99884.05
2024-04-23T17:40:59.141Z,99884.06
2024-04-23T17:43:26.881Z,99877.27
2024-04-23T17:46:03.936Z,99876.20
2024-04-23T17:48:34.624Z,99880.22
2024-04-23T17:51:06.355Z,99872.34
2024-04-23T17:53:34.491Z,99869.11
2024-04-23T17:56:02.574Z,99864.58
2024-04-23T17:58:30.527Z,99859.60
2024-04-23T18:00:57.989Z,99857.30
2024-04-23T18:03:27.480Z,99856.52
2024-04-23T18:05:55.182Z,99863.06
2024-04-23T18:08:22.702Z,99861.58
2024-04-23T18:10:50.281Z,99859.20
2024-04-23T18:13:17.868Z,99858.24
2024-04-23T18:15:45.954Z,99858.71
2024-04-23T18:18:16.981Z,99862.98
2024-04-23T18:20:44.596Z,99868.88
2024-04-23T18:23:11.986Z,99868.52
2024-04-23T18:25:39.497Z,99861.15
2024-04-23T18:28:07.362Z,99855.84
2024-04-23T18:30:36.070Z,99855.56
2024-04-23T18:33:03.952Z,99849.94
2024-04-23T18:35:31.660Z,99845.14
2024-04-23T18:37:59.329Z,99834.48
2024-04-23T18:40:26.855Z,99836.88
2024-04-23T18:42:54.627Z,99832.01
2024-04-23T18:45:22.063Z,99826.44
2024-04-23T18:47:49.600Z,99826.36
2024-04-23T18:50:17.293Z,99826.67
2024-04-23T18:52:45.192Z,99826.48
2024-04-23T18:55:12.894Z,99827.19
2024-04-23T18:57:40.529Z,99830.91
2024-04-23T19:00:10.156Z,99839.67
2024-04-23T19:02:37.962Z,99844.04
2024-04-23T19:05:05.831Z,99844.07
2024-04-23T19:07:33.238Z,99845.23
2024-04-23T19:10:00.670Z,99838.54
2024-04-23T19:12:28.211Z,99832.54
2024-04-23T19:14:55.718Z,99830.92
2024-04-23T19:17:23.247Z,99827.48
2024-04-23T19:19:50.956Z,99818.83
2024-04-23T19:22:18.512Z,99814.51
2024-04-23T19:24:45.915Z,99809.66
2024-04-23T19:27:13.433Z,99810.55
2024-04-23T19:29:41.070Z,99807.33
2024-04-23T19:32:08.967Z,99801.52
2024-04-23T19:34:36.722Z,99798.77
2024-04-23T19:37:04.268Z,99797.86
2024-04-23T19:39:31.955Z,99798.84
2024-04-23T19:41:59.660Z,99786.48
2024-04-23T19:44:28.347Z,99786.79
2024-04-23T19:46:55.813Z,99781.88
2024-04-23T19:49:23.412Z,99776.37
2024-04-23T19:51:50.970Z,99791.39
2024-04-23T19:54:18.459Z,99788.56
2024-04-23T19:56:49.250Z,99792.23
2024-04-23T19:59:16.924Z,99789.86
2024-04-23T20:01:44.735Z,99786.49
2024-04-23T20:04:12.814Z,99780.27
2024-04-23T20:06:40.500Z,99777.61
2024-04-23T20:09:09.000Z,99776.36
2024-04-23T20:11:37.233Z,99776.39
2024-04-23T20:14:04.947Z,99775.98
2024-04-23T20:16:32.407Z,99774.73
2024-04-23T20:19:00.044Z,99769.95
2024-04-23T20:21:28.040Z,99767.81
2024-04-23T20:23:55.797Z,99758.98
2024-04-23T20:26:24.461Z,99754.02
2024-04-23T20:28:53.335Z,99749.23
2024-04-23T20:31:21.647Z,99744.54
2024-04-23T20:33:50.020Z,99740.75
2024-04-23T20:36:17.798Z,99731.16
2024-04-23T20:38:45.368Z,99727.84
2024-04-23T20:41:15.865Z,99725.77
2024-04-23T20:43:43.570Z,99726.48
2024-04-23T20:46:11.307Z,99725.36
2024-04-23T20:48:39.070Z,99721.90
2024-04-23T20:51:06.615Z,99717.41
2024-04-23T20:53:34.022Z,99709.27
2024-04-23T20:56:06.211Z,99706.35
2024-04-23T20:58:34.300Z,99701.04
2024-04-23T21:01:07.242Z,99695.34
2024-04-23T21:03:34.826Z,99693.63
2024-04-23T21:06:02.467Z,99691.61
2024-04-23T21:08:30.084Z,99691.95
2024-04-23T21:10:57.766Z,99686.35
2024-04-23T21:13:29.087Z,99689.35
2024-04-23T21:15:58.403Z,99690.22
2024-04-23T21:18:29.132Z,99690.42
2024-04-23T21:20:59.904Z,99691.02
2024-04-23T21:23:27.396Z,99694.84
2024-04-23T21:25:54.968Z,99694.07
2024-04-23T21:28:25.363Z,99690.40
2024-04-23T21:30:58.481Z,99684.84
2024-04-23T21:33:26.547Z,99687.21
2024-04-23T21:35:54.127Z,99680.63
2024-04-23T21:38:21.833Z,99677.45
2024-04-23T21:40:49.461Z,99679.14
2024-04-23T21:43:16.817Z,99679.30
2024-04-23T21:45:44.185Z,99678.98
2024-04-23T21:48:14.469Z,99682.15
2024-04-23T21:50:43.768Z,99676.88
2024-04-23T21:53:11.340Z,99683.39
2024-04-23T21:55:38.790Z,99679.98
2024-04-23T21:58:06.219Z,99675.59
2024-04-23T22:00:33.586Z,99667.88
2024-04-23T22:03:01.280Z,99663.45
2024-04-23T22:05:30.849Z,99662.16
2024-04-23T22:07:58.164Z,99658.83
2024-04-23T22:10:25.588Z,99659.19
2024-04-23T22:12:53.069Z,99655.77
2024-04-23T22:15:28.252Z,99649.69
2024-04-23T22:19:45.936Z,99649.77
2024-04-23T22:22:13.355Z,99642.28
2024-04-23T22:24:42.879Z,99643.54
2024-04-23T22:27:10.769Z,99644.65
2024-04-23T22:29:38.202Z,99640.67
2024-04-23T22:32:06.276Z,99640.66
2024-04-23T22:34:33.975Z,99637.17
2024-04-23T22:37:01.404Z,99636.54
2024-04-23T22:39:28.784Z,99635.41
2024-04-23T22:41:56.324Z,99631.77
2024-04-23T22:44:24.991Z,99629.30
2024-04-23T22:46:52.378Z,99626.36
2024-04-23T22:49:19.781Z,99624.20
2024-04-23T22:51:50.111Z,99620.04
2024-04-23T22:54:17.561Z,99614.97
2024-04-23T22:56:45.402Z,99613.38
2024-04-23T22:59:12.723Z,99614.96
2024-04-23T23:01:40.168Z,99613.05
2024-04-23T23:04:08.676Z,99610.88
2024-04-23T23:06:36.482Z,99604.19
2024-04-23T23:09:04.850Z,99599.50
2024-04-23T23:11:32.604Z,99601.19
2024-04-23T23:14:00.500Z,99592.03
2024-04-23T23:16:28.086Z,99593.69
2024-04-23T23:18:55.572Z,99590.52
2024-04-23T23:21:23.037Z,99583.13
